Time;durP1;ratioP1;P1;durP2;ratioP2;P2;SDS_P1;SDS_P2;PMS_P1;PMS_P2;Temp;Humidity;BMP_temperature;BMP_pressure;BME280_temperature;BME280_humidity;BME280_pressure;Samples;Min_cycle;Max_cycle;Signal;HPM_P1;HPM_P2
2022/12/19 00:02:23;;;;;;;58.15;21.35;;;-4.10;99.90;;;;;;5003205;28;20050;-86
2022/12/19 00:05:15;;;;;;;48.10;18.88;;;-4.10;99.90;;;;;;5013655;28;20031;-85
2022/12/19 00:11:27;;;;;;;50.65;19.63;;;-4.10;99.90;;;;;;4977104;28;20043;-87
2022/12/19 00:14:20;;;;;;;30.90;19.50;;;-4.10;99.90;;;;;;4992303;28;20015;-84
2022/12/19 00:17:46;;;;;;;30.23;16.98;;;-4.00;99.90;;;;;;4978778;28;20020;-87
2022/12/19 00:21:04;;;;;;;33.50;18.25;;;-3.90;99.90;;;;;;4977631;28;20019;-87
2022/12/19 00:26:46;;;;;;;34.38;18.33;;;-4.00;99.90;;;;;;4998961;28;20069;-85
2022/12/19 00:29:21;;;;;;;28.73;14.57;;;-4.00;99.90;;;;;;4992697;28;20031;-88
2022/12/19 00:35:41;;;;;;;33.30;17.23;;;-4.00;99.90;;;;;;5028467;28;20052;-85
2022/12/19 00:38:44;;;;;;;43.00;19.17;;;-4.00;99.90;;;;;;5019962;28;20081;-86
2022/12/19 00:41:52;;;;;;;26.92;16.40;;;-3.90;99.90;;;;;;5001139;28;20424;-89
2022/12/19 00:44:21;;;;;;;29.00;16.23;;;-4.00;99.90;;;;;;4960340;29;20035;-84
2022/12/19 00:47:18;;;;;;;45.63;21.83;;;-3.90;99.90;;;;;;4975051;29;20043;-86
2022/12/19 00:50:05;;;;;;;56.85;17.98;;;-4.00;99.90;;;;;;4952684;28;20035;-88
2022/12/19 00:52:56;;;;;;;40.55;19.05;;;-4.00;99.90;;;;;;4947343;28;20035;-84
2022/12/19 00:56:19;;;;;;;44.83;19.23;;;-4.00;99.90;;;;;;4955990;29;20040;-85
2022/12/19 00:59:13;;;;;;;27.00;16.95;;;-4.10;99.90;;;;;;4963305;29;20039;-88
2022/12/19 01:01:51;;;;;;;35.47;19.58;;;-4.00;99.90;;;;;;4982641;28;20118;-87
2022/12/19 01:04:53;;;;;;;40.53;19.65;;;-4.00;99.90;;;;;;4957170;29;20035;-83
2022/12/19 01:15:09;;;;;;;21.20;16.40;;;-4.30;99.90;;;;;;4967135;29;20095;-88
2022/12/19 01:18:21;;;;;;;36.45;16.77;;;-4.20;99.90;;;;;;4988210;28;20027;-85
2022/12/19 01:21:13;;;;;;;42.58;18.35;;;-4.20;99.90;;;;;;4974730;28;20030;-87
2022/12/19 01:24:17;;;;;;;24.17;16.27;;;-4.40;99.90;;;;;;4978047;28;20031;-88
2022/12/19 01:33:34;;;;;;;24.85;14.65;;;-4.00;99.90;;;;;;4915076;29;20059;-86
2022/12/19 01:36:16;;;;;;;27.00;15.30;;;-4.20;99.90;;;;;;4896886;29;20045;-88
2022/12/19 01:39:27;;;;;;;27.75;16.98;;;-4.10;99.90;;;;;;4914566;29;20033;-88
2022/12/19 01:42:30;;;;;;;31.83;18.75;;;-4.00;99.90;;;;;;4923547;29;20042;-86
2022/12/19 01:45:37;;;;;;;27.33;16.08;;;-4.00;99.90;;;;;;4928858;29;20040;-85
2022/12/19 01:49:11;;;;;;;24.75;14.13;;;-3.90;99.90;;;;;;4933679;29;20024;-87
2022/12/19 01:51:58;;;;;;;26.52;14.95;;;-3.90;99.90;;;;;;4941076;29;20777;-88
2022/12/19 01:57:57;;;;;;;36.83;15.82;;;-3.70;99.90;;;;;;4964342;29;20054;-88
2022/12/19 02:00:48;;;;;;;30.05;17.98;;;-3.70;99.90;;;;;;4982101;28;20042;-89
2022/12/19 02:03:38;;;;;;;30.25;15.57;;;-3.80;99.90;;;;;;4987136;28;20114;-86
2022/12/19 02:06:28;;;;;;;25.45;17.55;;;-3.70;99.90;;;;;;4991118;28;20507;-88
2022/12/19 02:09:17;;;;;;;11.85;10.70;;;-3.70;99.90;;;;;;4974823;28;20074;-88
2022/12/19 02:12:36;;;;;;;26.13;13.73;;;-3.60;99.90;;;;;;4990283;28;20066;-88
2022/12/19 02:15:48;;;;;;;33.00;16.80;;;-3.60;99.90;;;;;;4999877;28;20011;-84
2022/12/19 02:18:48;;;;;;;19.67;12.73;;;-3.70;99.90;;;;;;4996478;28;20126;-87
2022/12/19 02:22:21;;;;;;;24.08;14.15;;;-3.70;99.90;;;;;;5009973;28;20034;-87
2022/12/19 02:25:26;;;;;;;30.60;16.23;;;-3.70;99.90;;;;;;5007117;28;20062;-83
2022/12/19 02:28:44;;;;;;;10.10;8.70;;;-3.80;99.90;;;;;;5013244;28;20032;-87
2022/12/19 02:32:00;;;;;;;24.63;17.85;;;-3.80;99.90;;;;;;4985953;28;20031;-90
2022/12/19 02:35:18;;;;;;;38.38;16.73;;;-3.80;99.90;;;;;;5003871;28;20037;-86
2022/12/19 02:38:02;;;;;;;28.77;17.08;;;-3.70;99.90;;;;;;5011434;28;20038;-85
2022/12/19 02:40:55;;;;;;;35.40;15.77;;;-3.80;99.90;;;;;;5007510;28;20053;-85
2022/12/19 02:43:51;;;;;;;26.75;14.35;;;-3.80;99.90;;;;;;4991995;28;20115;-84
2022/12/19 02:46:25;;;;;;;34.47;18.92;;;-3.80;99.90;;;;;;4970082;28;20035;-86
2022/12/19 02:49:10;;;;;;;37.53;16.30;;;-3.70;99.90;;;;;;4954054;29;20036;-87
2022/12/19 02:52:19;;;;;;;34.72;18.50;;;-3.70;99.90;;;;;;4960116;29;20099;-86
2022/12/19 02:55:06;;;;;;;30.73;15.25;;;-3.70;99.90;;;;;;4963775;28;20039;-85
2022/12/19 02:58:23;;;;;;;30.73;16.48;;;-3.50;99.90;;;;;;4972472;28;20097;-89
2022/12/19 03:01:24;;;;;;;20.85;12.73;;;-3.50;99.90;;;;;;4940343;29;20036;-89
2022/12/19 03:04:48;;;;;;;22.13;16.00;;;-3.30;99.90;;;;;;4934221;29;20031;-87
2022/12/19 03:08:10;;;;;;;22.83;15.82;;;-3.40;99.90;;;;;;4918394;29;20060;-87
2022/12/19 03:11:41;;;;;;;23.20;16.77;;;-3.40;99.90;;;;;;4904267;29;20088;-87
2022/12/19 03:14:53;;;;;;;20.08;14.55;;;-3.40;99.90;;;;;;4914850;29;20096;-87
2022/12/19 03:17:37;;;;;;;30.90;17.15;;;-3.40;99.90;;;;;;4861049;29;20037;-89
2022/12/19 03:20:37;;;;;;;35.33;17.10;;;-3.40;99.90;;;;;;4855853;29;20073;-88
2022/12/19 03:23:42;;;;;;;27.85;16.38;;;-3.30;99.90;;;;;;4837871;29;20052;-88
2022/12/19 03:27:14;;;;;;;31.63;17.10;;;-3.40;99.90;;;;;;4816998;29;20091;-87
2022/12/19 03:30:13;;;;;;;16.08;14.07;;;-3.30;99.90;;;;;;4842257;29;20034;-85
2022/12/19 03:33:33;;;;;;;36.33;15.43;;;-3.30;99.90;;;;;;4841305;29;20037;-88
2022/12/19 03:37:19;;;;;;;19.95;16.42;;;-3.30;99.90;;;;;;4865016;29;20048;-87
2022/12/19 03:40:16;;;;;;;22.70;15.60;;;-3.30;99.90;;;;;;4856548;29;20057;-86
2022/12/19 03:43:34;;;;;;;26.15;16.20;;;-3.20;99.90;;;;;;4875300;29;20105;-88
2022/12/19 03:46:36;;;;;;;21.45;14.25;;;-3.10;99.90;;;;;;4887503;29;20475;-87
2022/12/19 03:49:45;;;;;;;28.00;16.80;;;-3.00;99.90;;;;;;4904097;29;20104;-88
2022/12/19 03:53:16;;;;;;;30.98;15.98;;;-2.90;99.90;;;;;;4890038;29;20037;-88
2022/12/19 03:56:34;;;;;;;17.70;14.00;;;-3.00;99.90;;;;;;4960944;28;20144;-88
2022/12/19 04:00:13;;;;;;;26.05;16.02;;;-2.90;99.90;;;;;;4955925;29;20142;-87
2022/12/19 04:03:09;;;;;;;26.42;16.50;;;-2.80;99.90;;;;;;4929452;29;20039;-88
2022/12/19 04:06:08;;;;;;;27.63;14.07;;;-2.70;99.90;;;;;;4955905;29;20043;-87
2022/12/19 04:09:04;;;;;;;36.65;17.83;;;-2.70;99.90;;;;;;4955847;29;20031;-88
2022/12/19 04:12:36;;;;;;;35.13;17.90;;;-2.60;99.90;;;;;;4921050;29;20042;-89
2022/12/19 04:16:04;;;;;;;36.33;17.20;;;-2.80;99.90;;;;;;4923955;29;20033;-88
2022/12/19 04:18:38;;;;;;;37.33;16.58;;;-2.80;99.90;;;;;;4872960;29;20045;-89
2022/12/19 04:21:52;;;;;;;29.73;15.07;;;-2.80;99.90;;;;;;4827620;29;20044;-89
2022/12/19 04:28:18;;;;;;;22.67;16.65;;;-2.60;99.90;;;;;;4917768;29;20042;-89
2022/12/19 04:31:05;;;;;;;33.40;15.43;;;-2.50;99.90;;;;;;4905730;29;20059;-90
2022/12/19 04:37:21;;;;;;;27.77;14.73;;;-2.50;99.90;;;;;;4903120;29;20403;-88
2022/12/19 04:44:10;;;;;;;23.60;15.10;;;-2.50;99.90;;;;;;4888672;29;20044;-86
2022/12/19 04:47:11;;;;;;;24.70;15.13;;;-2.40;99.90;;;;;;4899458;29;20112;-89
2022/12/19 04:50:00;;;;;;;22.95;15.20;;;-2.30;99.90;;;;;;4866776;29;20052;-88
2022/12/19 04:52:41;;;;;;;23.13;16.08;;;-2.30;99.90;;;;;;4899231;29;20039;-88
2022/12/19 04:55:43;;;;;;;29.13;16.17;;;-2.20;99.90;;;;;;4901403;29;20040;-89
2022/12/19 04:58:13;;;;;;;33.45;18.73;;;-2.20;99.90;;;;;;4910067;29;20426;-88
2022/12/19 05:01:22;;;;;;;28.95;17.02;;;-2.20;99.90;;;;;;4928313;28;20121;-90
2022/12/19 05:04:30;;;;;;;34.35;17.27;;;-2.20;99.90;;;;;;4950976;29;20036;-88
2022/12/19 05:07:03;;;;;;;30.95;16.90;;;-2.30;99.90;;;;;;4933044;29;20102;-87
2022/12/19 05:10:28;;;;;;;25.23;16.48;;;-2.10;99.90;;;;;;4920881;29;20040;-89
2022/12/19 05:13:16;;;;;;;42.00;17.05;;;-2.20;99.90;;;;;;4900387;29;20032;-89
2022/12/19 05:15:57;;;;;;;30.13;17.05;;;-2.00;99.90;;;;;;4900105;29;20064;-90
2022/12/19 05:18:49;;;;;;;29.48;17.95;;;-2.00;99.90;;;;;;4905313;29;20123;-91
2022/12/19 05:21:39;;;;;;;34.40;20.38;;;-2.10;99.90;;;;;;4937532;29;20071;-89
2022/12/19 05:24:16;;;;;;;37.63;19.63;;;-2.00;99.90;;;;;;4936092;29;20064;-89
2022/12/19 05:27:02;;;;;;;36.15;19.25;;;-1.90;99.90;;;;;;4950077;29;20101;-88
2022/12/19 05:29:36;;;;;;;33.72;19.98;;;-1.70;99.90;;;;;;4938396;29;20043;-90
2022/12/19 05:32:19;;;;;;;37.38;19.00;;;-1.60;99.90;;;;;;4919711;29;20565;-88
2022/12/19 05:35:07;;;;;;;24.63;15.80;;;-1.60;99.90;;;;;;4946206;28;20485;-88
2022/12/19 05:38:11;;;;;;;38.70;19.45;;;-1.70;99.90;;;;;;4973633;28;20072;-88
2022/12/19 05:41:00;;;;;;;33.78;19.77;;;-1.70;99.90;;;;;;5015763;28;20480;-88
2022/12/19 05:44:14;;;;;;;30.27;18.98;;;-1.70;99.90;;;;;;5030499;28;20052;-90
2022/12/19 05:47:16;;;;;;;40.58;19.95;;;-1.70;99.90;;;;;;5002167;28;20113;-89
2022/12/19 05:53:13;;;;;;;25.60;17.35;;;-1.60;99.90;;;;;;5006945;28;20060;-88
2022/12/19 05:55:52;;;;;;;29.80;19.30;;;-1.60;99.90;;;;;;5018622;28;20683;-90
2022/12/19 05:58:25;;;;;;;32.25;20.73;;;-1.60;99.90;;;;;;5017023;28;20037;-90
2022/12/19 06:00:53;;;;;;;35.80;20.50;;;-1.60;99.90;;;;;;5007346;28;20136;-90
2022/12/19 06:06:55;;;;;;;34.13;18.90;;;-1.60;99.90;;;;;;5034872;28;20052;-88
2022/12/19 06:09:46;;;;;;;30.02;18.42;;;-1.60;99.90;;;;;;5036939;28;20124;-89
2022/12/19 06:12:28;;;;;;;49.00;26.02;;;-1.50;99.90;;;;;;5038101;28;20038;-89
2022/12/19 06:15:07;;;;;;;30.67;18.67;;;-1.50;99.90;;;;;;5052650;28;20097;-87
2022/12/19 06:17:53;;;;;;;29.02;19.65;;;-1.50;99.90;;;;;;5038482;28;20043;-88
2022/12/19 06:21:03;;;;;;;37.08;21.10;;;-1.50;99.90;;;;;;4991054;28;20060;-88
2022/12/19 06:24:20;;;;;;;34.00;18.02;;;-1.40;99.90;;;;;;5036659;28;20065;-89
2022/12/19 06:29:45;;;;;;;42.80;19.92;;;-1.40;99.90;;;;;;5031138;28;20092;-89
2022/12/19 06:32:15;;;;;;;27.58;16.38;;;-1.40;99.90;;;;;;5037422;28;20033;-89
2022/12/19 06:38:38;;;;;;;39.35;20.08;;;-1.40;99.90;;;;;;5003590;28;20061;-87
2022/12/19 06:44:35;;;;;;;25.73;19.45;;;-1.30;99.90;;;;;;5001462;28;20586;-90
2022/12/19 06:47:19;;;;;;;44.30;21.27;;;-1.40;99.90;;;;;;4968382;28;20167;-89
2022/12/19 06:50:55;;;;;;;41.05;20.17;;;-1.30;99.90;;;;;;4961732;28;20064;-90
2022/12/19 06:53:42;;;;;;;32.22;19.30;;;-1.30;99.90;;;;;;4958432;28;20035;-88
2022/12/19 06:57:10;;;;;;;32.28;20.45;;;-1.20;99.90;;;;;;4958474;28;20845;-89
2022/12/19 06:59:40;;;;;;;36.75;20.67;;;-1.20;99.90;;;;;;4962953;29;20039;-83
2022/12/19 07:02:20;;;;;;;38.15;21.27;;;-1.20;99.90;;;;;;4961991;29;20111;-88
2022/12/19 07:04:59;;;;;;;;;;;-1.10;99.90;;;;;;4961320;29;20426;-85
2022/12/19 07:07:25;;;;;;;21.85;17.75;;;-1.10;99.90;;;;;;4969984;28;19921;-89
2022/12/19 07:09:50;;;;;;;20.38;17.35;;;-1.20;99.90;;;;;;4934979;29;20035;-86
2022/12/19 07:12:17;;;;;;;34.42;21.20;;;-1.20;99.90;;;;;;4951938;28;20049;-86
2022/12/19 07:14:45;;;;;;;30.40;20.92;;;-1.20;99.90;;;;;;4954294;29;20043;-87
2022/12/19 07:17:18;;;;;;;45.78;21.50;;;-1.10;99.90;;;;;;4955145;29;20067;-85
2022/12/19 07:19:46;;;;;;;36.60;22.13;;;-1.10;99.90;;;;;;4951274;29;20561;-88
2022/12/19 07:22:12;;;;;;;27.98;18.30;;;-1.10;99.90;;;;;;4953721;28;20106;-87
2022/12/19 07:24:39;;;;;;;30.45;19.50;;;-1.10;99.90;;;;;;4955446;28;20105;-89
2022/12/19 07:27:05;;;;;;;39.13;22.67;;;-1.10;99.90;;;;;;4989108;28;20069;-88
2022/12/19 07:29:31;;;;;;;38.63;22.35;;;-1.00;99.90;;;;;;4993895;28;20034;-89
2022/12/19 07:31:56;;;;;;;43.13;22.42;;;-0.90;99.90;;;;;;5024802;28;20038;-88
2022/12/19 07:34:22;;;;;;;38.03;21.95;;;-0.80;99.90;;;;;;5016856;28;20025;-89
2022/12/19 07:36:48;;;;;;;35.65;21.83;;;-0.80;99.90;;;;;;5018033;28;20121;-88
2022/12/19 07:39:15;;;;;;;33.10;22.45;;;-0.60;99.90;;;;;;5026985;28;20044;-88
2022/12/19 07:41:41;;;;;;;37.55;22.02;;;-0.60;99.90;;;;;;5014130;28;20064;-90
2022/12/19 07:44:07;;;;;;;43.97;20.63;;;-0.50;99.90;;;;;;5014175;28;20099;-88
2022/12/19 07:46:35;;;;;;;37.10;20.75;;;-0.60;99.90;;;;;;4998076;28;20034;-89
2022/12/19 07:49:00;;;;;;;40.65;20.75;;;-0.70;99.90;;;;;;4997345;28;20029;-87
2022/12/19 07:51:26;;;;;;;40.47;19.65;;;-0.80;99.90;;;;;;5018191;28;20029;-90
2022/12/19 07:53:51;;;;;;;33.90;20.63;;;-0.80;99.90;;;;;;5013835;28;20034;-89
2022/12/19 07:56:17;;;;;;;33.55;19.02;;;-0.70;99.90;;;;;;5020104;28;20096;-89
2022/12/19 07:58:43;;;;;;;34.90;21.00;;;-0.60;99.90;;;;;;5014966;28;20057;-90
2022/12/19 08:01:11;;;;;;;38.45;22.90;;;-0.60;99.90;;;;;;5038853;28;20040;-90
2022/12/19 08:03:36;;;;;;;46.92;22.15;;;-0.60;99.90;;;;;;5039649;28;20038;-89
2022/12/19 08:06:04;;;;;;;38.10;21.80;;;-0.40;99.90;;;;;;5061771;28;20547;-90
2022/12/19 08:08:36;;;;;;;38.50;19.25;;;-0.40;99.90;;;;;;5062533;28;20020;-89
2022/12/19 08:11:17;;;;;;;34.88;20.17;;;-0.50;99.90;;;;;;5037295;28;20463;-86
2022/12/19 08:13:44;;;;;;;38.00;20.02;;;-0.30;99.90;;;;;;5066370;28;20032;-90
2022/12/19 08:16:10;;;;;;;28.65;19.42;;;-0.30;99.90;;;;;;5059958;28;20033;-87
2022/12/19 08:18:36;;;;;;;29.10;20.15;;;-0.30;99.90;;;;;;5072826;28;20039;-89
2022/12/19 08:21:02;;;;;;;29.92;20.40;;;-0.10;99.90;;;;;;5068029;28;20033;-90
2022/12/19 08:23:28;;;;;;;35.90;19.33;;;0.00;99.90;;;;;;5064052;28;20086;-86
2022/12/19 08:26:09;;;;;;;31.13;18.65;;;0.40;99.90;;;;;;5064526;28;20096;-86
2022/12/19 08:28:38;;;;;;;38.80;20.30;;;0.50;99.90;;;;;;5055346;28;20033;-86
2022/12/19 08:31:09;;;;;;;32.80;17.90;;;0.20;99.90;;;;;;5052571;28;20025;-87
2022/12/19 08:33:36;;;;;;;28.85;18.23;;;0.00;99.90;;;;;;5051446;28;20029;-86
2022/12/19 08:36:07;;;;;;;45.17;20.73;;;0.00;99.90;;;;;;5032341;28;20455;-84
2022/12/19 08:38:33;;;;;;;;;;;0.10;99.90;;;;;;5052556;28;20140;-88
2022/12/19 08:40:58;;;;;;;22.38;17.30;;;0.30;99.90;;;;;;5061498;28;19916;-88
2022/12/19 08:43:27;;;;;;;32.08;18.20;;;0.40;99.90;;;;;;5054046;28;20045;-84
2022/12/19 08:45:53;;;;;;;26.80;17.15;;;0.50;99.90;;;;;;5055113;28;20083;-86
2022/12/19 08:48:19;;;;;;;40.30;19.23;;;0.50;99.90;;;;;;5043495;28;20056;-84
2022/12/19 08:51:05;;;;;;;23.90;17.17;;;0.50;99.90;;;;;;5048921;28;20027;-84
2022/12/19 08:53:34;;;;;;;35.80;18.73;;;0.60;99.90;;;;;;5059992;28;20032;-83
2022/12/19 08:56:06;;;;;;;34.13;19.95;;;0.60;99.90;;;;;;5052794;28;20029;-87
2022/12/19 08:58:31;;;;;;;28.73;18.60;;;0.70;99.90;;;;;;5050519;28;20064;-85
2022/12/19 09:01:03;;;;;;;32.10;17.92;;;0.80;99.90;;;;;;5042148;28;20605;-85
2022/12/19 09:03:30;;;;;;;42.80;18.50;;;1.10;99.90;;;;;;5047739;28;20033;-87
2022/12/19 09:06:01;;;;;;;39.80;19.00;;;1.10;99.90;;;;;;5047707;28;20045;-83
2022/12/19 09:08:30;;;;;;;37.67;19.35;;;1.10;99.90;;;;;;5051352;28;20033;-85
2022/12/19 09:10:57;;;;;;;33.85;19.05;;;1.10;99.90;;;;;;5037128;28;20020;-87
2022/12/19 09:13:23;;;;;;;38.97;18.25;;;1.00;99.90;;;;;;5050758;28;20033;-84
2022/12/19 09:15:57;;;;;;;31.88;18.40;;;1.20;99.90;;;;;;5053067;28;20531;-86
2022/12/19 09:18:23;;;;;;;24.27;16.13;;;1.30;99.90;;;;;;5051412;28;20036;-87
2022/12/19 09:20:53;;;;;;;30.48;18.80;;;1.30;99.90;;;;;;5051662;28;20037;-89
2022/12/19 09:23:20;;;;;;;31.88;19.77;;;1.40;99.90;;;;;;5051994;28;20033;-87
2022/12/19 09:25:46;;;;;;;32.47;20.92;;;1.20;99.90;;;;;;5046033;28;20102;-88
2022/12/19 09:28:11;;;;;;;48.20;21.92;;;1.30;99.90;;;;;;5047691;28;20033;-89
2022/12/19 09:30:38;;;;;;;44.28;23.80;;;1.10;99.90;;;;;;5028925;28;20116;-82
2022/12/19 09:33:05;;;;;;;31.80;20.42;;;1.10;99.90;;;;;;5049110;28;20100;-86
2022/12/19 09:35:31;;;;;;;34.20;20.40;;;1.20;99.90;;;;;;5048800;28;20041;-89
2022/12/19 09:37:56;;;;;;;31.92;19.50;;;1.40;99.90;;;;;;5049708;28;20036;-85
2022/12/19 09:40:25;;;;;;;31.85;19.85;;;1.50;99.90;;;;;;5050701;28;20082;-87
2022/12/19 09:43:10;;;;;;;30.23;18.02;;;1.50;99.90;;;;;;5032999;28;20033;-87
2022/12/19 09:46:04;;;;;;;26.08;17.45;;;1.60;99.90;;;;;;5032898;28;20089;-86
2022/12/19 09:48:30;;;;;;;27.75;19.05;;;1.40;99.90;;;;;;5048230;28;20059;-83
2022/12/19 09:51:02;;;;;;;26.80;17.30;;;1.70;99.90;;;;;;5050633;28;20057;-84
2022/12/19 09:53:56;;;;;;;36.63;17.83;;;2.10;99.90;;;;;;5047900;28;20108;-82
2022/12/19 09:56:26;;;;;;;31.88;18.52;;;2.40;99.90;;;;;;5026014;28;20037;-83
2022/12/19 09:59:10;;;;;;;45.70;18.93;;;2.60;99.90;;;;;;5036451;28;20039;-80
2022/12/19 10:01:56;;;;;;;26.35;18.17;;;2.50;99.90;;;;;;5050269;28;20144;-82
2022/12/19 10:04:25;;;;;;;26.98;18.27;;;2.30;99.90;;;;;;5051187;28;20025;-81
2022/12/19 10:06:51;;;;;;;28.77;19.40;;;2.40;99.90;;;;;;5049357;28;20047;-82
2022/12/19 10:09:20;;;;;;;39.60;18.15;;;2.20;99.90;;;;;;5047056;28;20049;-80
2022/12/19 10:12:05;;;;;;;31.77;19.58;;;2.50;99.90;;;;;;5044468;28;20032;-84
2022/12/19 10:14:46;;;;;;;33.35;17.80;;;2.80;99.90;;;;;;5024220;28;20027;-82
2022/12/19 10:17:29;;;;;;;30.15;17.15;;;3.10;99.90;;;;;;5045813;28;20052;-81
2022/12/19 10:19:57;;;;;;;41.85;18.05;;;3.00;99.90;;;;;;5045705;28;20025;-85
2022/12/19 10:22:41;;;;;;;28.42;18.52;;;3.20;99.90;;;;;;5030682;28;20704;-82
2022/12/19 10:25:06;;;;;;;33.38;17.80;;;2.80;99.90;;;;;;5046312;28;20052;-79
2022/12/19 10:27:50;;;;;;;34.72;16.60;;;2.40;99.90;;;;;;5045286;28;20053;-80
2022/12/19 10:30:20;;;;;;;34.72;17.70;;;2.40;99.90;;;;;;5035715;28;20025;-85
2022/12/19 10:33:13;;;;;;;26.25;17.33;;;2.10;99.90;;;;;;5046326;28;20091;-81
2022/12/19 10:35:44;;;;;;;28.38;16.27;;;2.30;99.90;;;;;;5048735;28;20033;-84
2022/12/19 10:38:11;;;;;;;28.00;18.50;;;2.60;99.90;;;;;;5046339;28;20135;-79
2022/12/19 10:40:52;;;;;;;38.90;18.33;;;2.70;99.90;;;;;;5052757;28;20036;-81
2022/12/19 10:43:28;;;;;;;29.05;18.38;;;2.80;99.90;;;;;;5043111;28;20029;-80
2022/12/19 10:45:59;;;;;;;27.70;17.33;;;2.90;99.90;;;;;;5051338;28;20111;-86
2022/12/19 10:48:42;;;;;;;33.65;17.75;;;2.80;99.90;;;;;;5048330;28;20108;-83
2022/12/19 10:51:16;;;;;;;25.00;16.73;;;2.60;99.90;;;;;;5045304;28;20067;-84
2022/12/19 10:53:53;;;;;;;24.70;16.35;;;2.70;99.90;;;;;;5045953;28;20031;-82
2022/12/19 10:56:24;;;;;;;30.25;17.58;;;2.50;99.90;;;;;;5040906;28;20661;-82
2022/12/19 10:58:57;;;;;;;27.92;16.10;;;2.50;99.90;;;;;;5024984;28;20480;-84
2022/12/19 11:01:26;;;;;;;35.67;18.23;;;2.50;99.90;;;;;;4995191;28;20038;-83
2022/12/19 11:04:14;;;;;;;34.80;18.63;;;2.40;99.90;;;;;;5028941;28;20029;-82
2022/12/19 11:06:44;;;;;;;32.80;18.45;;;2.20;99.90;;;;;;5018913;28;20703;-85
2022/12/19 11:09:22;;;;;;;36.10;19.60;;;2.20;99.90;;;;;;5029623;28;20087;-84
2022/12/19 11:12:11;;;;;;;29.40;17.73;;;2.20;99.90;;;;;;5031637;28;20037;-85
2022/12/19 11:14:39;;;;;;;25.17;17.90;;;2.40;99.90;;;;;;5029151;28;20030;-85
2022/12/19 11:17:05;;;;;;;35.92;20.83;;;2.40;99.90;;;;;;5028425;28;20030;-86
2022/12/19 11:19:38;;;;;;;32.13;19.80;;;2.60;99.90;;;;;;5027408;28;20029;-87
2022/12/19 11:22:14;;;;;;;29.60;19.90;;;2.50;99.90;;;;;;5024479;28;20746;-84
2022/12/19 11:24:45;;;;;;;32.10;20.17;;;2.40;99.90;;;;;;5028313;28;20029;-84
2022/12/19 11:27:32;;;;;;;34.22;20.67;;;2.30;99.90;;;;;;5010760;28;20032;-81
2022/12/19 11:30:00;;;;;;;32.10;18.95;;;2.30;99.90;;;;;;5028810;28;20033;-84
2022/12/19 11:32:38;;;;;;;33.90;20.88;;;2.40;99.90;;;;;;5014285;28;20113;-89
2022/12/19 11:35:25;;;;;;;27.55;18.08;;;2.30;99.90;;;;;;5029581;28;20029;-83
2022/12/19 11:37:53;;;;;;;32.20;18.92;;;2.20;99.90;;;;;;5030092;28;20065;-84
2022/12/19 11:40:40;;;;;;;32.20;19.95;;;2.20;99.90;;;;;;5031061;28;20037;-83
2022/12/19 11:43:33;;;;;;;43.88;21.80;;;2.10;99.90;;;;;;5030057;28;20701;-87
2022/12/19 11:46:37;;;;;;;33.40;17.85;;;2.00;99.90;;;;;;5029326;28;20033;-87
2022/12/19 11:49:30;;;;;;;29.35;19.02;;;2.00;99.90;;;;;;5029779;28;20438;-89
2022/12/19 11:52:16;;;;;;;28.63;19.42;;;2.10;99.90;;;;;;5033752;28;20041;-91
2022/12/19 11:54:57;;;;;;;28.83;19.33;;;2.20;99.90;;;;;;5029371;28;20034;-89
2022/12/19 11:57:24;;;;;;;;;;;2.10;99.90;;;;;;5045110;28;20041;-91
2022/12/19 11:59:52;;;;;;;24.30;18.08;;;2.00;99.90;;;;;;5047649;28;19921;-92
2022/12/19 12:02:48;;;;;;;22.23;16.23;;;1.90;99.90;;;;;;5050580;28;20040;-89
2022/12/19 12:05:36;;;;;;;32.47;18.52;;;1.90;99.90;;;;;;5051667;28;20041;-90
2022/12/19 12:08:33;;;;;;;36.70;21.92;;;1.80;99.90;;;;;;5051834;28;20032;-89
2022/12/19 12:11:02;;;;;;;27.58;18.55;;;1.80;99.90;;;;;;5033078;28;20029;-90
2022/12/19 12:13:59;;;;;;;28.25;17.83;;;1.90;99.90;;;;;;5038034;28;20037;-91
2022/12/19 12:16:52;;;;;;;35.30;19.38;;;1.90;99.90;;;;;;5047464;28;20048;-89
2022/12/19 12:19:35;;;;;;;23.60;18.13;;;2.00;99.90;;;;;;5049338;28;20033;-90
2022/12/19 12:22:19;;;;;;;21.35;18.65;;;2.00;99.90;;;;;;5040951;28;20117;-89
2022/12/19 12:25:15;;;;;;;39.30;22.63;;;1.90;99.90;;;;;;5054346;28;20068;-89
2022/12/19 12:28:05;;;;;;;33.42;21.33;;;2.10;99.90;;;;;;5053194;28;20036;-88
2022/12/19 12:30:43;;;;;;;28.90;19.35;;;2.10;99.90;;;;;;5052102;28;20124;-90
2022/12/19 12:33:36;;;;;;;26.13;17.67;;;2.10;99.90;;;;;;5032866;28;20149;-87
2022/12/19 12:36:08;;;;;;;30.38;19.08;;;2.10;99.90;;;;;;5046211;28;20033;-84
2022/12/19 12:38:46;;;;;;;29.05;17.50;;;2.00;99.90;;;;;;5050723;28;20040;-86
2022/12/19 12:44:21;;;;;;;30.15;23.35;;;2.00;99.90;;;;;;5049919;28;20055;-87
2022/12/19 12:47:14;;;;;;;28.73;18.17;;;1.90;99.90;;;;;;5026562;28;20061;-90
2022/12/19 12:49:54;;;;;;;25.83;18.45;;;1.90;99.90;;;;;;5022350;28;20055;-90
2022/12/19 12:52:26;;;;;;;;;;;1.90;99.90;;;;;;5050334;28;20413;-90
2022/12/19 12:54:53;;;;;;;29.50;17.02;;;2.00;99.90;;;;;;5050148;28;19909;-90
2022/12/19 12:57:39;;;;;;;24.45;17.40;;;2.00;99.90;;;;;;5033240;28;20450;-91
2022/12/19 13:00:22;;;;;;;31.75;18.48;;;2.00;99.90;;;;;;5033007;28;20075;-90
2022/12/19 13:03:04;;;;;;;31.67;17.80;;;2.10;99.90;;;;;;5047667;28;20314;-89
2022/12/19 13:05:48;;;;;;;18.90;16.77;;;2.10;99.90;;;;;;5051858;28;20025;-89
2022/12/19 13:08:37;;;;;;;25.73;16.05;;;2.00;99.90;;;;;;5053011;28;20064;-90
2022/12/19 13:14:39;;;;;;;22.73;16.63;;;2.40;99.90;;;;;;5052683;28;20529;-89
2022/12/19 13:17:34;;;;;;;22.80;17.10;;;2.40;99.90;;;;;;5040143;28;20123;-90
2022/12/19 13:20:02;;;;;;;21.98;16.33;;;2.20;99.90;;;;;;5040963;28;20039;-90
2022/12/19 13:22:28;;;;;;;21.90;16.77;;;2.00;99.90;;;;;;5046903;28;20025;-90
2022/12/19 13:24:57;;;;;;;27.05;16.20;;;2.00;99.90;;;;;;5050028;28;20025;-90
2022/12/19 13:27:22;;;;;;;23.17;16.23;;;1.90;99.90;;;;;;5048172;28;20029;-90
2022/12/19 13:30:06;;;;;;;26.92;17.33;;;2.00;99.90;;;;;;5047191;28;20103;-89
2022/12/19 13:32:52;;;;;;;25.30;17.05;;;1.90;99.90;;;;;;5048743;28;20111;-90
2022/12/19 13:35:20;;;;;;;19.35;14.65;;;1.90;99.90;;;;;;5030883;28;20037;-89
2022/12/19 13:38:15;;;;;;;24.27;16.17;;;1.90;99.90;;;;;;5050738;28;20024;-90
2022/12/19 13:43:44;;;;;;;19.17;15.23;;;1.90;99.90;;;;;;5048345;28;20025;-90
2022/12/19 13:43:57;;;;;;;21.33;15.60;;;2.00;99.90;;;;;;5048186;28;20033;-89
2022/12/19 13:46:41;;;;;;;22.33;16.08;;;2.10;99.90;;;;;;5031302;28;20029;-86
2022/12/19 13:49:29;;;;;;;27.33;15.85;;;2.00;99.90;;;;;;5050710;28;20510;-84
2022/12/19 13:51:57;;;;;;;27.58;15.35;;;2.00;99.90;;;;;;5047837;28;20053;-85
2022/12/19 13:54:24;;;;;;;22.85;16.65;;;1.90;99.90;;;;;;5048202;28;20108;-81
2022/12/19 13:56:51;;;;;;;25.50;17.50;;;1.80;99.90;;;;;;5050791;28;20052;-83
2022/12/19 13:59:19;;;;;;;22.98;15.68;;;1.80;99.90;;;;;;5048788;28;20039;-85
2022/12/19 14:01:45;;;;;;;22.27;15.90;;;1.80;99.90;;;;;;5049124;28;20032;-86
2022/12/19 14:04:23;;;;;;;21.23;15.38;;;1.80;99.90;;;;;;5038742;28;20036;-85
2022/12/19 14:07:03;;;;;;;22.75;15.07;;;1.70;99.90;;;;;;5053386;28;20557;-83
2022/12/19 14:09:31;;;;;;;19.27;14.70;;;1.70;99.90;;;;;;5047861;28;20112;-85
2022/12/19 14:12:01;;;;;;;22.85;15.77;;;1.60;99.90;;;;;;5050685;28;20029;-84
2022/12/19 14:17:14;;;;;;;27.33;16.17;;;1.50;99.90;;;;;;5049682;28;20036;-84
2022/12/19 14:19:43;;;;;;;24.80;15.75;;;1.50;99.90;;;;;;5050870;28;20037;-89
2022/12/19 14:22:13;;;;;;;21.48;16.65;;;1.50;99.90;;;;;;5049875;28;20127;-85
2022/12/19 14:24:39;;;;;;;26.00;17.50;;;1.60;99.90;;;;;;5046659;28;20048;-84
2022/12/19 14:27:12;;;;;;;18.60;16.60;;;1.40;99.90;;;;;;5047239;28;20041;-82
2022/12/19 14:29:47;;;;;;;19.70;16.33;;;1.40;99.90;;;;;;5046209;28;20036;-83
2022/12/19 14:32:14;;;;;;;23.85;17.83;;;1.40;99.90;;;;;;5049827;28;20829;-82
2022/12/19 14:34:41;;;;;;;31.45;18.42;;;1.40;99.90;;;;;;5048972;28;20043;-84
2022/12/19 14:37:27;;;;;;;20.77;15.98;;;1.40;99.90;;;;;;5046259;28;20029;-88
2022/12/19 14:40:04;;;;;;;24.13;17.00;;;1.40;99.90;;;;;;5026676;28;20522;-84
2022/12/19 14:45:38;;;;;;;31.00;18.55;;;1.50;99.90;;;;;;5044189;28;20044;-81
2022/12/19 14:48:33;;;;;;;24.58;16.33;;;1.40;99.90;;;;;;5043859;28;20409;-84
2022/12/19 14:51:04;;;;;;;26.10;16.15;;;1.30;99.90;;;;;;5045234;28;20080;-85
2022/12/19 14:53:31;;;;;;;21.27;15.75;;;1.10;99.90;;;;;;5050237;28;20020;-82
2022/12/19 14:56:07;;;;;;;28.10;17.73;;;1.00;99.90;;;;;;5049760;28;20151;-79
2022/12/19 14:58:36;;;;;;;19.77;16.58;;;1.10;99.90;;;;;;5052716;28;20757;-86
2022/12/19 15:01:04;;;;;;;21.23;16.92;;;1.00;99.90;;;;;;5029374;28;20049;-84
2022/12/19 15:03:45;;;;;;;24.90;18.58;;;1.00;99.90;;;;;;5049003;28;20033;-83
2022/12/19 15:06:17;;;;;;;24.73;18.90;;;1.00;99.90;;;;;;5035477;28;20025;-82